Mahnomen, MN

12:25 AM CST on December 28, 2014 (GMT -0600)
Crookston Municipal-Kirkwood | Change Station
CLOSE
Current Station
Airport
Location: Crookston,
Elevation: 899 ft
Nearby Weather Stations
Active Advisory: Wind Chill Advisory

Elev 899 ft 47.84 °N, 96.62 °W | Updated 10 minutes ago

Overcast
Overcast
10 °F
Feels Like -5 °F
N
13
Wind Variable Wind from NNE

Today
High -- | Low -- °F
--% Chance of Precip.
Yesterday
High -- | Low -- °F
Precip. -- in
8:10 AM 4:40 PM
Waxing Crescent, 44% visible
Pressure 30.11 in
Visibility 10.0 miles
Clouds Overcast 2700 ft
Windchill -5 °F
Dew Point 7 °F
Humidity 85%
Rainfall 0.00 in
Snow Depth Not available.
UV 0 out of 12
Pollen .10 out of 12
Air Quality Not available.
Flu Activity Not available.
METAR KCKN 280615Z AUTO 02011KT 10SM -SN OVC027 M12/M14 A3011 RMK AO2

More Conditions Fewer Conditions

Pressure 30.11 in
Visibility 10.0 miles
Clouds Overcast 2700 ft
Windchill -5 °F
Dew Point 7 °F
Humidity 85%
Rainfall 0.00 in
Snow Depth Not available.
UV 0 out of 12
Pollen .10 out of 12
Air Quality Not available.
Flu Activity Not available.
METAR KCKN 280615Z AUTO 02011KT 10SM -SN OVC027 M12/M14 A3011 RMK AO2

More Conditions Fewer Conditions

10-Day Weather Forecast

Almanac

Astronomy

Dec. 28, 2014 Rise Set
Actual Time
Civil Twilight
Nautical Twilight
Astronomical Twilight
Moon
Length of Visible Light
Length of Day
Tomorrow will be .
, % of the Moon is Illuminated

Today's Extremes

State Highs State Lows

Community

WunderPhotos

Upload Photos

1,781,207 photos uploaded!

WunderBlogs® & News

Nearby

Air Quality

  Air Quality AQ Index Pollutant
Not available.

Snow Depth

Station Depth Elevation

Earthquake Activity

City Distance Mag. Time & Date
Minimum magnitude displayed is 2.5.

Coastal Water Temperatures

Place Temperature

Nearby Weather Stations